Time;durP1;ratioP1;P1;durP2;ratioP2;P2;SDS_P1;SDS_P2;PMS_P1;PMS_P2;Temp;Humidity;BMP_temperature;BMP_pressure;BME280_temperature;BME280_humidity;BME280_pressure;Samples;Min_cycle;Max_cycle;Signal;HPM_P1;HPM_P2
2022/04/06 00:01:03;;;;;;;10.40;10.10;;;9.10;99.90;;;;;;5002863;28;20229;-82
2022/04/06 00:03:34;;;;;;;10.67;10.37;;;9.10;99.90;;;;;;5001567;28;20221;-82
2022/04/06 00:06:02;;;;;;;10.40;10.10;;;9.10;99.90;;;;;;5001352;28;20225;-82
2022/04/06 00:08:31;;;;;;;10.60;10.30;;;9.10;99.90;;;;;;5001233;28;20247;-81
2022/04/06 00:10:59;;;;;;;10.47;10.17;;;9.10;99.90;;;;;;5002177;28;20241;-81
2022/04/06 00:13:27;;;;;;;10.60;10.30;;;9.10;99.90;;;;;;5000836;28;20225;-82
2022/04/06 00:15:56;;;;;;;10.60;10.30;;;9.10;99.90;;;;;;5001629;28;20217;-81
2022/04/06 00:18:24;;;;;;;10.53;10.23;;;9.10;99.90;;;;;;5001597;28;20299;-82
2022/04/06 00:20:52;;;;;;;10.53;10.23;;;9.20;99.90;;;;;;5002255;28;20228;-82
2022/04/06 00:23:22;;;;;;;10.63;10.33;;;9.10;99.90;;;;;;5001286;28;20236;-82
2022/04/06 00:25:52;;;;;;;10.50;10.20;;;9.10;99.90;;;;;;5001572;28;20248;-82
2022/04/06 00:28:20;;;;;;;10.70;10.40;;;9.20;99.90;;;;;;5001489;28;20303;-82
2022/04/06 00:30:51;;;;;;;10.73;10.43;;;9.20;99.90;;;;;;5012557;28;20240;-83
2022/04/06 00:33:19;;;;;;;10.70;10.40;;;9.20;99.90;;;;;;5002368;28;20305;-83
2022/04/06 00:35:46;;;;;;;10.80;10.50;;;9.20;99.90;;;;;;5002571;28;20225;-83
2022/04/06 00:38:16;;;;;;;11.00;10.70;;;9.20;99.90;;;;;;5001928;28;20249;-83
2022/04/06 00:40:44;;;;;;;10.83;10.53;;;9.20;99.90;;;;;;5002260;28;20237;-83
2022/04/06 00:43:15;;;;;;;10.70;10.40;;;9.20;99.90;;;;;;5001032;28;20323;-83
2022/04/06 00:45:45;;;;;;;10.90;10.60;;;9.20;99.90;;;;;;5001070;28;20225;-83
2022/04/06 00:48:13;;;;;;;10.47;10.17;;;9.20;99.90;;;;;;5000804;28;20245;-83
2022/04/06 00:50:43;;;;;;;10.47;10.17;;;9.20;99.90;;;;;;5001457;28;20261;-83
2022/04/06 00:53:13;;;;;;;10.60;10.30;;;9.20;99.90;;;;;;5000294;28;20769;-83
2022/04/06 00:55:41;;;;;;;10.40;10.10;;;9.20;99.90;;;;;;5000372;28;20229;-83
2022/04/06 00:58:09;;;;;;;10.63;10.33;;;9.20;99.90;;;;;;5000144;28;20240;-83
2022/04/06 01:00:43;;;;;;;10.27;9.97;;;9.20;99.90;;;;;;5000340;28;20324;-83
2022/04/06 01:03:14;;;;;;;10.10;9.80;;;9.20;99.90;;;;;;5000354;28;20260;-83
2022/04/06 01:05:43;;;;;;;9.97;9.67;;;9.20;99.90;;;;;;5004098;28;20247;-82
2022/04/06 01:08:12;;;;;;;10.37;10.07;;;9.20;99.90;;;;;;5001242;28;20260;-83
2022/04/06 01:10:40;;;;;;;10.57;10.27;;;9.20;99.90;;;;;;5001642;28;20237;-83
2022/04/06 01:13:09;;;;;;;10.70;10.40;;;9.20;99.90;;;;;;5000244;28;20244;-83
2022/04/06 01:15:39;;;;;;;10.30;10.00;;;9.10;99.90;;;;;;5000908;28;20228;-83
2022/04/06 01:18:11;;;;;;;10.50;10.20;;;9.10;99.90;;;;;;5000227;28;20237;-82
2022/04/06 01:20:39;;;;;;;10.60;10.30;;;9.10;99.90;;;;;;5000952;28;20233;-83
2022/04/06 01:23:10;;;;;;;10.60;10.30;;;9.00;99.90;;;;;;5000508;28;20236;-83
2022/04/06 01:25:40;;;;;;;10.47;10.17;;;9.00;99.90;;;;;;5000460;28;20233;-83
2022/04/06 01:28:10;;;;;;;10.37;10.07;;;9.00;99.90;;;;;;5006051;28;20237;-82
2022/04/06 01:30:38;;;;;;;10.03;9.73;;;9.00;99.90;;;;;;5002283;28;20332;-83
2022/04/06 01:33:08;;;;;;;10.00;9.70;;;8.90;99.90;;;;;;5001091;28;20236;-82
2022/04/06 01:35:41;;;;;;;10.00;9.70;;;8.90;99.90;;;;;;5002194;28;20221;-83
2022/04/06 01:38:11;;;;;;;10.40;10.10;;;8.90;99.90;;;;;;5001337;28;20287;-83
2022/04/06 01:40:39;;;;;;;10.07;9.77;;;8.90;99.90;;;;;;5000613;28;20236;-82
2022/04/06 01:43:08;;;;;;;10.13;9.83;;;8.90;99.90;;;;;;5000174;28;20229;-81
2022/04/06 01:45:36;;;;;;;10.17;9.87;;;8.80;99.90;;;;;;5004473;28;20252;-81
2022/04/06 01:48:06;;;;;;;10.00;9.70;;;8.80;99.90;;;;;;5019622;28;20252;-81
2022/04/06 01:53:21;;;;;;;9.97;9.67;;;8.70;99.90;;;;;;5019585;28;20193;-81
2022/04/06 01:55:51;;;;;;;10.17;9.87;;;8.70;99.90;;;;;;5019361;28;20233;-82
2022/04/06 01:58:19;;;;;;;10.03;9.73;;;8.70;99.90;;;;;;5019305;28;20232;-81
2022/04/06 02:00:47;;;;;;;10.10;9.80;;;8.60;99.90;;;;;;5017300;28;20225;-81
2022/04/06 02:03:15;;;;;;;10.10;9.80;;;8.60;99.90;;;;;;5017668;28;20232;-81
2022/04/06 02:05:43;;;;;;;10.10;9.80;;;8.60;99.90;;;;;;5019288;28;20216;-82
2022/04/06 02:08:11;;;;;;;10.23;9.93;;;8.50;99.90;;;;;;5018995;28;20257;-81
2022/04/06 02:10:40;;;;;;;10.20;9.90;;;8.60;99.90;;;;;;5036211;22;20322;-80
2022/04/06 02:13:08;;;;;;;10.13;9.83;;;8.50;99.90;;;;;;5019112;28;20232;-80
2022/04/06 02:15:37;;;;;;;10.17;9.87;;;8.60;99.90;;;;;;5019776;28;20228;-80
2022/04/06 02:18:11;;;;;;;10.17;9.87;;;8.50;99.90;;;;;;5022027;28;20236;-80
2022/04/06 02:20:39;;;;;;;10.20;9.90;;;8.50;99.90;;;;;;5023632;28;20240;-80
2022/04/06 02:23:10;;;;;;;10.20;9.90;;;8.50;99.90;;;;;;5023040;28;20674;-79
2022/04/06 02:25:37;;;;;;;10.23;9.93;;;8.50;99.90;;;;;;5016555;28;20344;-80
2022/04/06 02:28:10;;;;;;;10.47;10.17;;;8.50;99.90;;;;;;5012361;28;20248;-80
2022/04/06 02:30:38;;;;;;;10.20;9.90;;;8.50;99.90;;;;;;5004300;28;20248;-80
2022/04/06 02:33:06;;;;;;;10.27;9.97;;;8.60;99.90;;;;;;5004694;28;20283;-80
2022/04/06 02:35:37;;;;;;;10.17;9.87;;;8.60;99.90;;;;;;5004699;28;20237;-79
2022/04/06 02:38:05;;;;;;;10.30;10.00;;;8.50;99.90;;;;;;5004634;28;20237;-80
2022/04/06 02:40:34;;;;;;;10.07;9.77;;;8.50;99.90;;;;;;5003835;28;20229;-80
2022/04/06 02:43:05;;;;;;;10.50;10.20;;;8.60;99.90;;;;;;5020457;28;20295;-80
2022/04/06 02:45:36;;;;;;;10.43;10.13;;;8.60;99.90;;;;;;5009761;28;20241;-80
2022/04/06 02:48:05;;;;;;;10.40;10.10;;;8.60;99.90;;;;;;5007137;28;20217;-79
2022/04/06 02:50:32;;;;;;;10.30;10.00;;;8.60;99.90;;;;;;5004172;28;20237;-80
2022/04/06 02:53:01;;;;;;;10.10;9.80;;;8.50;99.90;;;;;;5004890;28;20228;-80
2022/04/06 02:55:32;;;;;;;10.40;10.10;;;8.50;99.90;;;;;;5006051;28;20213;-80
2022/04/06 02:58:00;;;;;;;10.20;9.90;;;8.50;99.90;;;;;;5005560;28;20295;-80
2022/04/06 03:00:32;;;;;;;10.17;9.87;;;8.50;99.90;;;;;;5006221;28;20295;-80
2022/04/06 03:05:46;;;;;;;10.00;9.70;;;8.50;99.90;;;;;;5019517;28;20217;-81
2022/04/06 03:08:17;;;;;;;10.40;10.10;;;8.50;99.90;;;;;;5008384;28;20264;-80
2022/04/06 03:10:45;;;;;;;10.30;10.00;;;8.40;99.90;;;;;;5007346;28;20272;-80
2022/04/06 03:13:14;;;;;;;10.07;9.77;;;8.40;99.90;;;;;;5005810;28;20248;-79
2022/04/06 03:15:44;;;;;;;10.17;9.87;;;8.40;99.90;;;;;;5016544;28;20265;-80
2022/04/06 03:18:22;;;;;;;10.10;9.80;;;8.40;99.90;;;;;;5024892;28;20232;-80
2022/04/06 03:20:52;;;;;;;9.80;9.50;;;8.40;99.90;;;;;;5024318;28;20290;-81
2022/04/06 03:23:22;;;;;;;10.10;9.80;;;8.40;99.90;;;;;;5023874;28;20247;-80
2022/04/06 03:25:51;;;;;;;10.00;9.70;;;8.40;99.90;;;;;;5023168;28;20259;-79
2022/04/06 03:28:23;;;;;;;9.80;9.50;;;8.40;99.90;;;;;;5023009;28;20244;-80
2022/04/06 03:30:51;;;;;;;9.90;9.60;;;8.40;99.90;;;;;;5023723;28;20228;-80
2022/04/06 03:33:29;;;;;;;9.87;9.57;;;8.40;99.90;;;;;;5025166;28;20231;-80
2022/04/06 03:35:59;;;;;;;9.97;9.67;;;8.30;99.90;;;;;;5024449;28;20220;-80
2022/04/06 03:38:28;;;;;;;10.10;9.80;;;8.30;99.90;;;;;;5024604;28;20240;-81
2022/04/06 03:40:58;;;;;;;10.10;9.80;;;8.30;99.90;;;;;;5023460;28;20267;-80
2022/04/06 03:43:27;;;;;;;10.00;9.70;;;8.30;99.90;;;;;;5021785;28;20223;-80
2022/04/06 03:45:57;;;;;;;10.00;9.70;;;8.30;99.90;;;;;;5022426;28;20291;-80
2022/04/06 03:48:35;;;;;;;9.97;9.67;;;8.30;99.90;;;;;;5022755;28;20240;-79
2022/04/06 03:51:04;;;;;;;10.07;9.77;;;8.40;99.90;;;;;;5022809;28;20329;-80
2022/04/06 03:53:35;;;;;;;10.00;9.70;;;8.40;99.90;;;;;;5022160;28;20232;-79
2022/04/06 03:56:03;;;;;;;10.00;9.70;;;8.40;99.90;;;;;;5022485;28;20252;-80
2022/04/06 03:58:33;;;;;;;10.07;9.77;;;8.40;99.90;;;;;;5022788;28;20239;-79
2022/04/06 04:01:02;;;;;;;10.10;9.80;;;8.40;99.90;;;;;;5022860;28;20234;-79
2022/04/06 04:03:34;;;;;;;10.20;9.90;;;8.40;99.90;;;;;;5021895;28;20263;-80
2022/04/06 04:06:02;;;;;;;10.07;9.77;;;8.30;99.90;;;;;;5023845;28;20241;-79
2022/04/06 04:08:30;;;;;;;9.90;9.60;;;8.30;99.90;;;;;;5029032;28;20275;-80
2022/04/06 04:11:00;;;;;;;10.13;9.83;;;8.30;99.90;;;;;;5026321;28;20244;-78
2022/04/06 04:13:29;;;;;;;10.20;9.90;;;8.30;99.90;;;;;;5024272;28;20291;-79
2022/04/06 04:15:59;;;;;;;10.10;9.80;;;8.30;99.90;;;;;;5024572;28;20988;-80
2022/04/06 04:18:28;;;;;;;10.17;9.87;;;8.30;99.90;;;;;;5024340;28;20283;-80
2022/04/06 04:23:46;;;;;;;10.13;9.83;;;8.30;99.90;;;;;;5015961;28;20271;-79
2022/04/06 04:26:15;;;;;;;10.30;10.00;;;8.30;99.90;;;;;;5024048;28;20224;-80
2022/04/06 04:28:44;;;;;;;10.40;10.10;;;8.40;99.90;;;;;;5022584;28;20271;-79
2022/04/06 04:31:13;;;;;;;10.10;9.80;;;8.40;99.90;;;;;;5023728;28;20227;-80
2022/04/06 04:33:42;;;;;;;10.20;9.90;;;8.40;99.90;;;;;;5021170;28;20252;-79
2022/04/06 04:36:21;;;;;;;10.60;10.30;;;8.40;99.90;;;;;;5023567;28;20298;-80
2022/04/06 04:38:50;;;;;;;10.67;10.37;;;8.40;99.90;;;;;;5021817;28;20244;-80
2022/04/06 04:41:20;;;;;;;10.80;10.50;;;8.50;99.90;;;;;;5021105;28;20294;-80
2022/04/06 04:43:50;;;;;;;10.83;10.53;;;8.50;99.90;;;;;;5022095;28;20231;-81
2022/04/06 04:46:19;;;;;;;10.80;10.50;;;8.50;99.90;;;;;;5022741;28;20232;-79
2022/04/06 04:48:49;;;;;;;10.87;10.57;;;8.50;99.90;;;;;;5022193;28;20295;-80
2022/04/06 04:51:28;;;;;;;10.70;10.40;;;8.50;99.90;;;;;;5021658;28;20243;-80
2022/04/06 04:53:57;;;;;;;10.90;10.60;;;8.50;99.90;;;;;;5021082;28;20234;-80
2022/04/06 04:56:25;;;;;;;10.87;10.57;;;8.50;99.90;;;;;;5021489;28;20232;-80
2022/04/06 04:58:56;;;;;;;10.80;10.50;;;8.50;99.90;;;;;;5021507;28;20239;-80
2022/04/06 05:01:24;;;;;;;11.03;10.73;;;8.60;99.90;;;;;;5021739;28;20287;-80
2022/04/06 05:03:53;;;;;;;10.90;10.60;;;8.50;99.90;;;;;;5020838;28;20228;-81
2022/04/06 05:06:31;;;;;;;10.77;10.47;;;8.50;99.90;;;;;;5021400;28;20274;-80
2022/04/06 05:09:01;;;;;;;10.60;10.30;;;8.60;99.90;;;;;;5020750;28;20248;-80
2022/04/06 05:11:30;;;;;;;10.50;10.20;;;8.60;99.90;;;;;;5021956;28;20228;-81
2022/04/06 05:14:00;;;;;;;10.80;10.50;;;8.60;99.90;;;;;;5021135;28;20282;-81
2022/04/06 05:16:29;;;;;;;10.63;10.33;;;8.60;99.90;;;;;;5021688;28;20354;-80
2022/04/06 05:19:01;;;;;;;10.53;10.23;;;8.70;99.90;;;;;;5022115;28;20235;-80
2022/04/06 05:24:15;;;;;;;10.23;9.93;;;8.70;99.90;;;;;;5036026;28;20212;-79
2022/04/06 05:26:44;;;;;;;10.60;10.30;;;8.70;99.90;;;;;;5029528;28;20239;-81
2022/04/06 05:29:17;;;;;;;10.70;10.40;;;8.80;99.90;;;;;;5024325;28;20325;-81
2022/04/06 05:31:45;;;;;;;10.70;10.40;;;8.80;99.90;;;;;;5023615;28;20239;-80
2022/04/06 05:34:16;;;;;;;10.80;10.50;;;8.80;99.90;;;;;;5022619;28;20236;-81
2022/04/06 05:36:47;;;;;;;10.77;10.47;;;8.80;99.90;;;;;;5022361;28;20247;-79
2022/04/06 05:39:14;;;;;;;10.83;10.53;;;8.80;99.90;;;;;;5021293;28;20241;-80
2022/04/06 05:41:44;;;;;;;10.90;10.60;;;8.90;99.90;;;;;;5021298;28;20243;-79
2022/04/06 05:44:13;;;;;;;10.73;10.43;;;8.90;99.90;;;;;;5021438;28;20231;-79
2022/04/06 05:46:42;;;;;;;10.80;10.50;;;8.90;99.90;;;;;;5021185;28;20228;-80
2022/04/06 05:49:11;;;;;;;10.63;10.33;;;8.90;99.90;;;;;;5023053;28;20259;-79
2022/04/06 05:51:41;;;;;;;10.80;10.50;;;8.90;99.90;;;;;;5023918;28;20224;-79
2022/04/06 05:56:57;;;;;;;11.23;10.83;;;8.90;99.90;;;;;;5025970;28;20211;-81
2022/04/06 05:59:27;;;;;;;10.87;10.57;;;9.00;99.90;;;;;;5026338;28;20240;-80
2022/04/06 06:01:56;;;;;;;11.20;10.80;;;9.00;99.90;;;;;;5027024;28;20299;-81
2022/04/06 06:04:26;;;;;;;10.80;10.50;;;9.10;99.90;;;;;;5027029;28;20302;-80
2022/04/06 06:06:55;;;;;;;10.50;10.20;;;9.10;99.90;;;;;;5027330;28;20231;-81
2022/04/06 06:09:33;;;;;;;10.90;10.60;;;9.10;99.90;;;;;;5025906;28;20474;-81
2022/04/06 06:12:03;;;;;;;10.50;10.20;;;9.10;99.90;;;;;;5026143;28;20295;-85
2022/04/06 06:14:33;;;;;;;10.90;10.60;;;9.10;99.90;;;;;;5030811;28;20271;-80
2022/04/06 06:17:02;;;;;;;10.90;10.60;;;9.20;99.90;;;;;;5030205;28;20231;-83
2022/04/06 06:19:31;;;;;;;10.90;10.60;;;9.10;99.90;;;;;;5030483;28;20287;-82
2022/04/06 06:22:02;;;;;;;11.30;10.90;;;9.20;99.90;;;;;;5036070;28;20221;-83
2022/04/06 06:24:33;;;;;;;11.30;10.90;;;9.20;99.90;;;;;;5041796;28;20287;-81
2022/04/06 06:27:08;;;;;;;11.17;10.77;;;9.30;99.90;;;;;;5041672;28;20223;-82
2022/04/06 06:29:38;;;;;;;11.30;10.90;;;9.30;99.90;;;;;;5042058;28;20243;-81
2022/04/06 06:32:08;;;;;;;11.13;10.77;;;9.40;99.90;;;;;;5041626;28;20240;-81
2022/04/06 06:34:39;;;;;;;10.93;10.63;;;9.30;99.90;;;;;;5041505;28;20231;-81
2022/04/06 06:37:15;;;;;;;10.77;10.47;;;9.40;99.90;;;;;;5037397;28;20220;-82
2022/04/06 06:39:47;;;;;;;11.10;10.80;;;9.50;99.90;;;;;;5028666;28;20240;-82
2022/04/06 06:42:15;;;;;;;11.53;11.13;;;9.50;99.90;;;;;;5030321;28;20966;-80
2022/04/06 06:44:43;;;;;;;11.07;10.77;;;9.50;99.90;;;;;;5029985;28;20231;-83
2022/04/06 06:47:12;;;;;;;11.40;11.00;;;9.60;99.90;;;;;;5028917;28;20228;-82
2022/04/06 06:49:46;;;;;;;11.20;10.80;;;9.60;99.90;;;;;;5028398;28;20950;-82
2022/04/06 06:52:14;;;;;;;11.37;10.97;;;9.60;99.90;;;;;;5027497;28;20228;-82
2022/04/06 06:54:44;;;;;;;11.37;10.97;;;9.60;99.90;;;;;;5010037;28;20486;-83
2022/04/06 06:57:12;;;;;;;11.40;11.00;;;9.60;99.90;;;;;;5020157;28;20225;-82
2022/04/06 06:59:41;;;;;;;11.00;10.70;;;9.60;99.90;;;;;;5024827;28;20233;-82
2022/04/06 07:02:09;;;;;;;11.10;10.80;;;9.60;99.90;;;;;;5027392;28;20239;-84
2022/04/06 07:04:38;;;;;;;11.00;10.70;;;9.60;99.90;;;;;;5008157;28;20225;-84
2022/04/06 07:07:08;;;;;;;11.03;10.73;;;9.70;99.90;;;;;;5007600;28;20299;-84
2022/04/06 07:09:37;;;;;;;10.80;10.50;;;9.70;99.90;;;;;;5007611;28;20344;-83
2022/04/06 07:12:16;;;;;;;10.80;10.50;;;9.70;99.90;;;;;;5008540;28;20275;-83
2022/04/06 07:14:46;;;;;;;11.00;10.70;;;9.70;99.90;;;;;;5007500;28;20237;-82
2022/04/06 07:17:15;;;;;;;10.70;10.40;;;9.80;99.90;;;;;;5007365;28;20281;-83
2022/04/06 07:19:45;;;;;;;10.73;10.43;;;9.80;99.90;;;;;;5016637;28;20250;-83
2022/04/06 07:22:13;;;;;;;10.70;10.40;;;9.90;99.90;;;;;;5015726;28;20288;-83
2022/04/06 07:24:44;;;;;;;10.50;10.20;;;9.90;99.90;;;;;;5021972;28;20236;-83
2022/04/06 07:27:16;;;;;;;10.87;10.57;;;9.90;99.90;;;;;;5022585;28;20268;-82
2022/04/06 07:29:44;;;;;;;10.70;10.40;;;9.90;99.90;;;;;;5016347;28;20232;-82
2022/04/06 07:32:24;;;;;;;10.63;10.33;;;10.00;99.90;;;;;;5008991;28;20233;-82
2022/04/06 07:34:56;;;;;;;10.80;10.50;;;10.10;99.90;;;;;;5013366;28;20235;-83
2022/04/06 07:37:24;;;;;;;10.67;10.37;;;10.20;99.90;;;;;;5023429;28;20265;-82
2022/04/06 07:39:59;;;;;;;10.70;10.40;;;10.30;99.90;;;;;;5023158;28;20261;-82
2022/04/06 07:42:55;;;;;;;10.37;10.07;;;10.30;99.90;;;;;;5019738;28;20220;-80
2022/04/06 07:45:24;;;;;;;10.20;9.90;;;10.30;99.90;;;;;;5009011;28;20236;-81
2022/04/06 07:47:55;;;;;;;10.27;9.97;;;10.40;99.90;;;;;;5012130;28;20228;-81
2022/04/06 07:50:24;;;;;;;10.40;10.10;;;10.50;99.90;;;;;;5007328;28;20499;-83
2022/04/06 07:52:54;;;;;;;10.20;9.90;;;10.50;99.90;;;;;;5003896;28;20237;-83
2022/04/06 07:55:23;;;;;;;10.27;9.97;;;10.50;99.90;;;;;;5002997;28;20252;-81
2022/04/06 07:57:54;;;;;;;10.30;10.00;;;10.50;99.90;;;;;;5002295;28;20241;-82
2022/04/06 08:00:48;;;;;;;10.50;10.20;;;10.50;99.90;;;;;;5000529;28;20236;-81
2022/04/06 08:09:49;;;;;;;10.63;10.33;;;10.40;99.90;;;;;;4948324;22;20226;-86
2022/04/06 08:12:19;;;;;;;10.73;10.43;;;10.40;99.90;;;;;;4982567;28;20238;-86
2022/04/06 08:15:00;;;;;;;10.13;9.83;;;10.50;99.90;;;;;;4985846;28;20288;-86
2022/04/06 08:17:30;;;;;;;10.30;10.00;;;10.50;99.90;;;;;;5003705;28;20236;-85
2022/04/06 08:19:59;;;;;;;10.00;9.70;;;10.60;99.90;;;;;;5001211;28;20229;-84
2022/04/06 08:22:49;;;;;;;10.43;10.13;;;10.60;99.90;;;;;;4983871;28;20320;-84
2022/04/06 08:28:21;;;;;;;10.57;10.27;;;10.80;99.90;;;;;;4985727;28;20241;-84
2022/04/06 08:31:16;;;;;;;10.37;10.07;;;10.80;99.90;;;;;;4986399;28;20237;-82
2022/04/06 08:33:49;;;;;;;10.20;9.90;;;10.80;99.90;;;;;;4989167;28;20233;-85
2022/04/06 08:36:17;;;;;;;10.27;9.97;;;10.80;99.90;;;;;;4991240;28;20238;-83
2022/04/06 08:38:46;;;;;;;10.10;9.80;;;10.80;99.90;;;;;;4991840;28;20225;-84
2022/04/06 08:41:15;;;;;;;10.27;9.97;;;10.70;99.90;;;;;;4987051;28;20238;-82
2022/04/06 08:43:46;;;;;;;10.30;10.00;;;10.70;99.90;;;;;;4990874;28;20232;-82
2022/04/06 08:46:17;;;;;;;9.90;9.60;;;10.80;99.90;;;;;;4992887;28;20245;-83
2022/04/06 08:48:51;;;;;;;10.20;9.90;;;10.70;99.90;;;;;;4998607;28;20320;-84
2022/04/06 08:51:21;;;;;;;10.13;9.83;;;10.80;99.90;;;;;;4993035;28;20236;-84
2022/04/06 08:53:49;;;;;;;10.30;10.00;;;10.80;99.90;;;;;;4993951;28;20237;-85
2022/04/06 08:56:17;;;;;;;9.87;9.57;;;10.90;99.90;;;;;;4996486;28;20245;-84
2022/04/06 08:58:46;;;;;;;9.87;9.57;;;11.00;99.90;;;;;;4996374;28;20253;-84
2022/04/06 09:01:18;;;;;;;10.30;10.00;;;11.00;99.90;;;;;;4996820;28;20225;-84
2022/04/06 09:03:47;;;;;;;9.80;9.50;;;11.10;99.90;;;;;;4993926;28;20247;-84
2022/04/06 09:06:16;;;;;;;10.10;9.80;;;11.20;99.90;;;;;;4996028;28;20233;-84
2022/04/06 09:08:46;;;;;;;9.90;9.60;;;11.20;99.90;;;;;;4998229;28;20226;-84
2022/04/06 09:11:15;;;;;;;9.50;9.20;;;11.30;99.90;;;;;;4991872;28;20248;-84
2022/04/06 09:13:46;;;;;;;10.00;9.70;;;11.30;99.90;;;;;;4993287;28;20245;-84
2022/04/06 09:16:17;;;;;;;9.70;9.40;;;11.30;99.90;;;;;;4999702;28;20221;-83
2022/04/06 09:18:48;;;;;;;9.80;9.50;;;11.40;99.90;;;;;;4999528;28;20233;-84
2022/04/06 09:21:23;;;;;;;9.73;9.43;;;11.40;99.90;;;;;;4999730;28;20268;-84
2022/04/06 09:23:51;;;;;;;9.70;9.40;;;11.40;99.90;;;;;;5000122;28;20253;-85
2022/04/06 09:26:21;;;;;;;9.73;9.43;;;11.40;99.90;;;;;;4999584;28;20218;-85
2022/04/06 09:28:52;;;;;;;9.90;9.60;;;11.30;99.90;;;;;;5000662;28;20222;-83
2022/04/06 09:31:27;;;;;;;9.90;9.60;;;11.20;99.90;;;;;;4999754;28;20214;-83
2022/04/06 09:34:00;;;;;;;9.77;9.47;;;11.30;99.90;;;;;;4999970;28;20205;-84
2022/04/06 09:36:31;;;;;;;10.07;9.77;;;11.30;99.90;;;;;;5000560;28;20220;-83
2022/04/06 09:38:59;;;;;;;10.00;9.70;;;11.30;99.90;;;;;;5001163;28;20216;-85
2022/04/06 09:41:34;;;;;;;9.90;9.60;;;11.40;99.90;;;;;;5000183;28;20254;-84
2022/04/06 09:47:38;;;;;;;9.60;9.30;;;11.40;99.90;;;;;;5000229;28;20248;-83
2022/04/06 09:47:39;;;;;;;9.60;9.30;;;11.50;99.90;;;;;;5000273;28;20286;-83
2022/04/06 09:50:19;;;;;;;9.23;8.93;;;11.60;99.90;;;;;;4999199;28;20289;-83
2022/04/06 09:52:48;;;;;;;9.40;9.10;;;11.60;99.90;;;;;;4998050;28;20244;-82
2022/04/06 09:55:20;;;;;;;9.00;8.80;;;11.70;99.90;;;;;;4982285;28;20225;-82
2022/04/06 09:57:51;;;;;;;9.30;9.00;;;11.60;99.90;;;;;;4982691;28;20241;-82
2022/04/06 10:00:23;;;;;;;9.33;9.03;;;11.60;99.90;;;;;;4981238;28;20272;-84
2022/04/06 10:03:03;;;;;;;9.10;8.80;;;11.60;99.90;;;;;;4981352;28;20222;-83
2022/04/06 10:05:33;;;;;;;9.10;8.83;;;11.70;99.90;;;;;;4982246;28;20237;-83
2022/04/06 10:08:09;;;;;;;9.20;8.90;;;11.70;99.90;;;;;;4981264;28;20325;-85
2022/04/06 10:10:40;;;;;;;9.40;9.10;;;11.80;99.90;;;;;;4985490;28;20237;-83
2022/04/06 10:13:13;;;;;;;9.40;9.10;;;11.90;99.90;;;;;;4985227;28;20233;-83
2022/04/06 10:15:44;;;;;;;9.27;8.97;;;12.20;99.90;;;;;;4981724;28;20233;-84
2022/04/06 10:18:15;;;;;;;9.33;9.03;;;12.50;99.90;;;;;;4981546;28;20276;-83
2022/04/06 10:20:53;;;;;;;9.37;9.07;;;12.50;99.90;;;;;;4981760;28;20292;-82
2022/04/06 10:23:33;;;;;;;9.90;9.60;;;12.70;99.90;;;;;;4991836;28;20232;-83
2022/04/06 10:26:15;;;;;;;9.50;9.20;;;12.90;99.90;;;;;;5000937;28;20232;-83
2022/04/06 10:28:46;;;;;;;9.10;8.83;;;13.20;99.90;;;;;;5000330;28;20232;-82
2022/04/06 10:31:24;;;;;;;9.07;8.80;;;13.50;99.90;;;;;;4999918;28;20233;-83
2022/04/06 10:34:24;;;;;;;9.70;9.40;;;13.50;99.90;;;;;;4998625;28;20287;-84
2022/04/06 10:37:10;;;;;;;9.37;9.07;;;13.60;99.90;;;;;;5001750;28;20245;-81
2022/04/06 10:40:02;;;;;;;9.23;8.93;;;13.60;99.90;;;;;;5003072;28;20262;-82
2022/04/06 10:42:37;;;;;;;9.40;9.10;;;13.40;99.90;;;;;;5003415;28;20236;-82
2022/04/06 10:45:35;;;;;;;9.47;9.17;;;13.50;99.90;;;;;;5004636;28;20307;-82
2022/04/06 10:48:20;;;;;;;9.20;8.90;;;13.60;99.90;;;;;;5005439;28;20232;-82
2022/04/06 10:50:51;;;;;;;9.43;9.13;;;13.30;99.90;;;;;;5005133;28;20308;-81
2022/04/06 10:53:33;;;;;;;9.80;9.50;;;13.20;99.90;;;;;;5007986;28;20228;-82
2022/04/06 10:56:06;;;;;;;9.90;9.60;;;13.20;99.90;;;;;;5003502;28;20221;-82
2022/04/06 10:59:16;;;;;;;9.70;9.40;;;13.20;99.90;;;;;;5002746;28;20233;-81
2022/04/06 11:01:46;;;;;;;9.80;9.50;;;13.50;99.90;;;;;;4988393;28;20292;-83
2022/04/06 11:04:22;;;;;;;9.60;9.30;;;13.60;99.90;;;;;;5003244;28;20247;-81
2022/04/06 11:06:59;;;;;;;9.60;9.30;;;13.50;99.90;;;;;;5002274;28;20236;-81
2022/04/06 11:12:18;;;;;;;9.73;9.43;;;13.30;99.90;;;;;;5003115;28;20209;-82
2022/04/06 11:14:48;;;;;;;9.80;9.50;;;13.40;99.90;;;;;;5003550;28;20296;-80
2022/04/06 11:17:48;;;;;;;9.30;9.00;;;13.40;99.90;;;;;;5003320;28;20225;-83
2022/04/06 11:20:19;;;;;;;9.40;9.10;;;13.50;99.90;;;;;;4962720;28;20246;-84
2022/04/06 11:22:54;;;;;;;9.47;9.17;;;13.60;99.90;;;;;;4993100;28;20326;-82
2022/04/06 11:25:25;;;;;;;9.43;9.13;;;13.80;99.90;;;;;;5002056;28;20229;-81
2022/04/06 11:27:55;;;;;;;10.17;9.87;;;14.00;99.90;;;;;;5002145;28;20288;-83
2022/04/06 11:30:26;;;;;;;9.93;9.63;;;14.00;99.90;;;;;;5002626;28;20240;-81
2022/04/06 11:32:56;;;;;;;10.00;9.70;;;14.00;99.90;;;;;;5004181;28;20264;-81
2022/04/06 11:35:29;;;;;;;9.70;9.40;;;13.90;99.90;;;;;;5003187;28;20265;-82
2022/04/06 11:37:59;;;;;;;9.73;9.43;;;13.80;99.90;;;;;;5018877;28;20215;-82
2022/04/06 11:40:29;;;;;;;9.80;9.50;;;14.10;99.90;;;;;;5019305;28;20309;-82
2022/04/06 11:42:59;;;;;;;9.33;9.03;;;14.10;99.90;;;;;;5005279;28;20236;-82
2022/04/06 11:45:29;;;;;;;9.50;9.20;;;14.00;99.90;;;;;;5004101;28;20233;-81
2022/04/06 11:47:59;;;;;;;9.40;9.10;;;14.00;99.90;;;;;;5003992;28;20252;-82
2022/04/06 11:50:31;;;;;;;9.80;9.50;;;13.90;99.90;;;;;;5002079;28;20240;-82
2022/04/06 11:53:39;;;;;;;9.70;9.40;;;13.90;99.90;;;;;;5002576;28;20237;-81
2022/04/06 11:56:07;;;;;;;10.07;9.77;;;14.00;99.90;;;;;;5002597;28;20225;-81
2022/04/06 11:58:37;;;;;;;9.77;9.47;;;14.10;99.90;;;;;;5002437;28;20221;-82
2022/04/06 12:01:07;;;;;;;9.70;9.40;;;14.10;99.90;;;;;;5002230;28;20232;-82
2022/04/06 12:03:38;;;;;;;9.43;9.13;;;14.20;99.90;;;;;;5002340;28;20239;-82
2022/04/06 12:06:11;;;;;;;9.80;9.50;;;14.20;99.90;;;;;;5002338;28;20256;-82
2022/04/06 12:08:41;;;;;;;9.67;9.37;;;14.10;99.90;;;;;;5003050;28;20237;-82
2022/04/06 12:11:10;;;;;;;9.97;9.67;;;14.00;99.90;;;;;;5002180;28;20237;-82
2022/04/06 12:13:40;;;;;;;9.80;9.50;;;13.90;99.90;;;;;;5000337;28;20237;-83
2022/04/06 12:16:09;;;;;;;10.23;9.93;;;13.90;99.90;;;;;;5002503;28;20252;-83
2022/04/06 12:18:42;;;;;;;10.27;9.97;;;13.90;99.90;;;;;;5002264;28;20233;-83
2022/04/06 12:21:21;;;;;;;10.37;10.07;;;13.90;99.90;;;;;;5000581;28;20243;-81
2022/04/06 12:23:51;;;;;;;10.53;10.23;;;13.90;99.90;;;;;;5001495;28;20233;-81
2022/04/06 12:26:20;;;;;;;10.33;10.03;;;13.90;99.90;;;;;;5001633;28;20260;-83
2022/04/06 12:28:50;;;;;;;10.33;10.03;;;14.00;99.90;;;;;;5000778;28;20228;-82
2022/04/06 12:31:18;;;;;;;10.10;9.80;;;14.20;99.90;;;;;;5001372;28;20248;-83
2022/04/06 12:33:48;;;;;;;10.17;9.87;;;14.40;99.90;;;;;;4980360;28;20237;-82
2022/04/06 12:36:20;;;;;;;9.80;9.50;;;14.50;99.90;;;;;;4980618;28;20249;-82
2022/04/06 12:39:04;;;;;;;9.80;9.50;;;14.60;99.90;;;;;;4981408;28;20237;-82
2022/04/06 12:41:34;;;;;;;9.93;9.63;;;14.60;99.90;;;;;;4980403;28;20341;-82
2022/04/06 12:44:03;;;;;;;10.10;9.80;;;14.50;99.90;;;;;;4980406;28;20229;-82
2022/04/06 12:46:42;;;;;;;10.20;9.90;;;14.40;99.90;;;;;;4980469;28;20244;-82
2022/04/06 12:49:32;;;;;;;9.80;9.50;;;14.30;99.90;;;;;;4980866;28;20291;-82
2022/04/06 12:52:12;;;;;;;9.83;9.53;;;14.40;99.90;;;;;;4980365;28;20244;-82
2022/04/06 12:54:43;;;;;;;9.93;9.63;;;14.60;99.90;;;;;;4981612;28;20280;-82
2022/04/06 12:57:17;;;;;;;10.27;9.97;;;14.70;99.90;;;;;;4980602;28;20236;-82
2022/04/06 12:59:50;;;;;;;10.30;10.00;;;14.90;99.90;;;;;;4981624;28;20229;-83
2022/04/06 13:02:26;;;;;;;10.07;9.77;;;15.10;99.90;;;;;;4980523;28;20335;-83
2022/04/06 13:04:56;;;;;;;10.07;9.77;;;15.00;99.90;;;;;;4972854;28;20260;-82
2022/04/06 13:07:24;;;;;;;10.10;9.80;;;14.90;99.90;;;;;;4981276;28;20238;-82
2022/04/06 13:09:56;;;;;;;10.70;10.40;;;14.90;99.90;;;;;;4979695;28;20292;-82
2022/04/06 13:12:26;;;;;;;10.50;10.20;;;14.90;99.90;;;;;;4980254;28;20241;-83
2022/04/06 13:14:54;;;;;;;10.57;10.27;;;14.90;99.90;;;;;;4981299;28;20273;-81
2022/04/06 13:17:23;;;;;;;10.53;10.23;;;15.10;99.90;;;;;;4980966;28;20400;-83
2022/04/06 13:19:51;;;;;;;10.20;9.90;;;15.20;99.90;;;;;;4979711;28;20272;-81
2022/04/06 13:22:20;;;;;;;10.13;9.82;;;15.70;99.90;;;;;;4980862;28;20313;-83
2022/04/06 13:24:48;;;;;;;10.20;9.90;;;16.00;99.90;;;;;;4981251;28;21090;-83
2022/04/06 13:27:21;;;;;;;10.02;9.73;;;15.80;99.90;;;;;;4981778;28;20284;-83
2022/04/06 13:29:49;;;;;;;9.90;9.60;;;15.70;99.90;;;;;;4982098;28;20226;-85